FGA103 FOOL-FAOR
Flight info
| Callsign | FGA103 |
|---|---|
| Flight time | N/A |
| Altitude | 35000 |
| Route | PILVI UR526 VNA UN187 ARGOL R987 UVAMO UT942 UTVIN UM998 GBV UL435 ETOSA UZ10 PEDIL/N0434F230 Q19 AVAGO AVAGO1C |
| Aircraft | A320/M-SDE3FGHIRWY/LB1 |
Departure
| Time | 2026-04-17 14:48 |
|---|---|
| Airport | Libreville Leon M'ba International Airport (FOOL) |
Arrival
| Time | N/A |
|---|---|
| Airport | O.R. Tambo International Airport (FAOR) |
| Time | Latitude | Longitude | Altitude | Speed | Heading |
|---|---|---|---|---|---|
| 2026-04-17 14:13 | 0.45711 | 9.41098 | 40 ft | 0 kts | 227° |
| 2026-04-17 14:38 | 0.45723 | 9.41111 | 39 ft | 4 kts | 227° |
| 2026-04-17 14:38 | 0.45741 | 9.41131 | 35 ft | 4 kts | 227° |
| 2026-04-17 14:39 | 0.45760 | 9.41151 | 33 ft | 4 kts | 227° |
| 2026-04-17 14:39 | 0.45773 | 9.41165 | 34 ft | 0 kts | 227° |
| 2026-04-17 14:42 | 0.45772 | 9.41164 | 36 ft | 1 kts | 227° |
| 2026-04-17 14:42 | 0.45753 | 9.41158 | 36 ft | 5 kts | 169° |
| 2026-04-17 14:42 | 0.45699 | 9.41183 | 36 ft | 11 kts | 150° |
| 2026-04-17 14:43 | 0.45626 | 9.41218 | 34 ft | 13 kts | 154° |
| 2026-04-17 14:43 | 0.45543 | 9.41258 | 36 ft | 14 kts | 154° |
| 2026-04-17 14:43 | 0.45455 | 9.41300 | 36 ft | 14 kts | 154° |
| 2026-04-17 14:43 | 0.45406 | 9.41372 | 36 ft | 12 kts | 80° |
| 2026-04-17 14:44 | 0.45410 | 9.41384 | 35 ft | 2 kts | 72° |
| 2026-04-17 14:44 | 0.45418 | 9.41410 | 33 ft | 5 kts | 77° |
| 2026-04-17 14:44 | 0.45408 | 9.41445 | 35 ft | 6 kts | 120° |
| 2026-04-17 14:44 | 0.45373 | 9.41464 | 35 ft | 7 kts | 154° |
| 2026-04-17 14:45 | 0.45309 | 9.41495 | 34 ft | 14 kts | 154° |
| 2026-04-17 14:45 | 0.45205 | 9.41546 | 35 ft | 19 kts | 153° |
| 2026-04-17 14:45 | 0.45065 | 9.41616 | 36 ft | 26 kts | 154° |
| 2026-04-17 14:45 | 0.44885 | 9.41702 | 36 ft | 31 kts | 154° |
| 2026-04-17 14:46 | 0.44689 | 9.41749 | 35 ft | 25 kts | 206° |
| 2026-04-17 14:46 | 0.44628 | 9.41766 | 35 ft | 4 kts | 73° |
| 2026-04-17 14:46 | 0.44642 | 9.41799 | 33 ft | 6 kts | 57° |
| 2026-04-17 14:46 | 0.44680 | 9.41799 | 35 ft | 6 kts | 340° |
| 2026-04-17 14:47 | 0.44687 | 9.41796 | 35 ft | 0 kts | 333° |
| 2026-04-17 14:47 | 0.44775 | 9.41752 | 34 ft | 45 kts | 333° |
| 2026-04-17 14:48 | 0.45265 | 9.41516 | 36 ft | 108 kts | 334° |
| 2026-04-17 14:48 | 0.46097 | 9.41113 | 36 ft | 155 kts | 333° |
| 2026-04-17 14:48 | 0.47154 | 9.40604 | 286 ft | 173 kts | 335° |
| 2026-04-17 14:48 | 0.48257 | 9.40118 | 877 ft | 175 kts | 334° |
| 2026-04-17 14:49 | 0.49369 | 9.39613 | 1450 ft | 176 kts | 334° |
| 2026-04-17 14:49 | 0.50494 | 9.39087 | 1895 ft | 186 kts | 334° |
| 2026-04-17 14:49 | 0.51631 | 9.38407 | 2279 ft | 194 kts | 316° |
| 2026-04-17 14:49 | 0.52324 | 9.37246 | 2549 ft | 199 kts | 291° |
| 2026-04-17 14:50 | 0.52955 | 9.35977 | 2754 ft | 214 kts | 302° |
| 2026-04-17 14:50 | 0.53788 | 9.34637 | 2861 ft | 240 kts | 297° |
| 2026-04-17 14:50 | 0.54179 | 9.32953 | 3083 ft | 263 kts | 266° |
| 2026-04-17 14:50 | 0.53649 | 9.31180 | 3556 ft | 273 kts | 237° |
| 2026-04-17 14:51 | 0.52838 | 9.30216 | 3973 ft | 276 kts | 218° |
| 2026-04-17 14:51 | 0.51137 | 9.29342 | 4643 ft | 278 kts | 191° |
| 2026-04-17 14:51 | 0.49218 | 9.29336 | 5316 ft | 279 kts | 163° |
| 2026-04-17 14:51 | 0.47396 | 9.30002 | 6025 ft | 280 kts | 155° |
| 2026-04-17 14:52 | 0.45607 | 9.30788 | 6681 ft | 282 kts | 154° |
| 2026-04-17 14:52 | 0.43808 | 9.31586 | 7338 ft | 284 kts | 154° |
| 2026-04-17 14:52 | 0.41990 | 9.32388 | 7994 ft | 287 kts | 154° |
| 2026-04-17 14:52 | 0.40154 | 9.33188 | 8643 ft | 289 kts | 154° |
| 2026-04-17 14:53 | 0.38300 | 9.33988 | 9286 ft | 291 kts | 154° |
| 2026-04-17 14:53 | 0.36428 | 9.34786 | 9881 ft | 295 kts | 154° |
| 2026-04-17 14:53 | 0.34475 | 9.35622 | 10008 ft | 315 kts | 154° |
| 2026-04-17 14:53 | 0.32409 | 9.36533 | 10124 ft | 334 kts | 153° |
| 2026-04-17 14:54 | 0.30238 | 9.37518 | 10230 ft | 351 kts | 153° |
| 2026-04-17 14:54 | 0.27968 | 9.38560 | 10361 ft | 367 kts | 153° |
| 2026-04-17 14:54 | 0.25605 | 9.39647 | 10563 ft | 379 kts | 153° |
| 2026-04-17 14:54 | 0.23194 | 9.40754 | 10975 ft | 383 kts | 153° |
| 2026-04-17 14:55 | 0.20759 | 9.41869 | 11427 ft | 387 kts | 153° |
| 2026-04-17 14:55 | 0.18300 | 9.42993 | 11898 ft | 390 kts | 153° |
| 2026-04-17 14:55 | 0.15823 | 9.44123 | 12363 ft | 393 kts | 154° |
| 2026-04-17 14:55 | 0.13328 | 9.45261 | 12830 ft | 396 kts | 154° |
| 2026-04-17 14:56 | 0.10815 | 9.46403 | 13292 ft | 399 kts | 154° |
| 2026-04-17 14:56 | 0.08282 | 9.47555 | 13748 ft | 401 kts | 154° |
| 2026-04-17 14:56 | 0.05733 | 9.48717 | 14179 ft | 404 kts | 154° |
| 2026-04-17 14:56 | 0.03168 | 9.49886 | 14601 ft | 406 kts | 154° |
| 2026-04-17 14:57 | 0.00588 | 9.51062 | 15029 ft | 409 kts | 154° |
| 2026-04-17 14:57 | -0.01977 | 9.52229 | 15441 ft | 412 kts | 154° |
| 2026-04-17 14:57 | -0.04596 | 9.53423 | 15962 ft | 415 kts | 154° |
| 2026-04-17 14:57 | -0.07230 | 9.54624 | 16403 ft | 418 kts | 154° |
| 2026-04-17 14:58 | -0.09884 | 9.55835 | 16817 ft | 421 kts | 154° |
| 2026-04-17 14:58 | -0.12558 | 9.57054 | 17214 ft | 424 kts | 154° |
| 2026-04-17 14:58 | -0.15247 | 9.58280 | 17625 ft | 426 kts | 154° |
| 2026-04-17 14:58 | -0.17953 | 9.59515 | 18010 ft | 429 kts | 154° |
| 2026-04-17 14:59 | -0.20679 | 9.60756 | 18342 ft | 431 kts | 154° |
| 2026-04-17 14:59 | -0.23415 | 9.62002 | 18673 ft | 433 kts | 154° |
| 2026-04-17 14:59 | -0.26159 | 9.63253 | 18995 ft | 435 kts | 154° |
| 2026-04-17 14:59 | -0.28920 | 9.64511 | 19314 ft | 437 kts | 154° |
| 2026-04-17 15:00 | -0.31694 | 9.65774 | 19626 ft | 439 kts | 154° |
| 2026-04-17 15:00 | -0.34480 | 9.67042 | 19942 ft | 441 kts | 154° |
| 2026-04-17 15:00 | -0.37280 | 9.68317 | 20239 ft | 443 kts | 154° |
| 2026-04-17 15:00 | -0.40091 | 9.69598 | 20529 ft | 445 kts | 154° |
| 2026-04-17 15:01 | -0.42915 | 9.70886 | 20823 ft | 446 kts | 154° |
| 2026-04-17 15:01 | -0.45746 | 9.72177 | 21107 ft | 448 kts | 154° |
| 2026-04-17 15:01 | -0.48588 | 9.73471 | 21384 ft | 450 kts | 154° |
| 2026-04-17 15:01 | -0.51406 | 9.74754 | 21647 ft | 451 kts | 154° |
| 2026-04-17 15:02 | -0.54270 | 9.76060 | 21904 ft | 453 kts | 154° |
| 2026-04-17 15:02 | -0.57141 | 9.77369 | 22155 ft | 455 kts | 154° |
| 2026-04-17 15:02 | -0.60031 | 9.78686 | 22399 ft | 456 kts | 154° |
| 2026-04-17 15:02 | -0.62924 | 9.80004 | 22639 ft | 458 kts | 154° |
| 2026-04-17 15:03 | -0.65829 | 9.81326 | 22864 ft | 460 kts | 154° |
| 2026-04-17 15:03 | -0.68745 | 9.82654 | 23091 ft | 461 kts | 154° |
| 2026-04-17 15:03 | -0.71671 | 9.83988 | 23311 ft | 463 kts | 154° |
| 2026-04-17 15:03 | -0.74599 | 9.85324 | 23531 ft | 463 kts | 154° |
| 2026-04-17 15:04 | -0.77526 | 9.86660 | 23796 ft | 462 kts | 154° |
| 2026-04-17 15:04 | -0.80446 | 9.87992 | 24064 ft | 461 kts | 154° |
| 2026-04-17 15:04 | -0.83363 | 9.89322 | 24334 ft | 460 kts | 154° |
| 2026-04-17 15:04 | -0.86275 | 9.90649 | 24601 ft | 460 kts | 154° |
| 2026-04-17 15:05 | -0.89180 | 9.91974 | 24869 ft | 459 kts | 154° |
| 2026-04-17 15:05 | -0.92082 | 9.93296 | 25141 ft | 458 kts | 154° |
| 2026-04-17 15:05 | -0.94981 | 9.94617 | 25419 ft | 458 kts | 154° |
| 2026-04-17 15:05 | -0.97874 | 9.95940 | 25695 ft | 457 kts | 154° |
| 2026-04-17 15:06 | -1.00764 | 9.97261 | 25982 ft | 456 kts | 154° |
| 2026-04-17 15:06 | -1.03649 | 9.98579 | 26269 ft | 456 kts | 155° |
| 2026-04-17 15:06 | -1.06531 | 9.99893 | 26555 ft | 455 kts | 155° |
| 2026-04-17 15:06 | -1.09411 | 10.01205 | 26851 ft | 455 kts | 155° |
| 2026-04-17 15:07 | -1.12287 | 10.02515 | 27138 ft | 454 kts | 155° |
| 2026-04-17 15:07 | -1.15156 | 10.03821 | 27423 ft | 454 kts | 155° |
| 2026-04-17 15:07 | -1.18035 | 10.05132 | 27711 ft | 453 kts | 155° |
| 2026-04-17 15:07 | -1.20866 | 10.06421 | 28022 ft | 453 kts | 155° |
| 2026-04-17 15:08 | -1.23731 | 10.07728 | 28338 ft | 452 kts | 155° |
| 2026-04-17 15:08 | -1.26591 | 10.09032 | 28671 ft | 452 kts | 155° |
| 2026-04-17 15:08 | -1.29447 | 10.10330 | 28992 ft | 451 kts | 155° |
| 2026-04-17 15:08 | -1.32301 | 10.11630 | 29329 ft | 450 kts | 155° |
| 2026-04-17 15:09 | -1.35149 | 10.12931 | 29664 ft | 450 kts | 155° |
| 2026-04-17 15:09 | -1.37995 | 10.14230 | 29965 ft | 449 kts | 155° |
| 2026-04-17 15:09 | -1.40836 | 10.15527 | 30256 ft | 448 kts | 155° |
| 2026-04-17 15:09 | -1.43668 | 10.16819 | 30554 ft | 447 kts | 155° |
| 2026-04-17 15:10 | -1.46493 | 10.18110 | 30856 ft | 446 kts | 155° |
| 2026-04-17 15:10 | -1.49312 | 10.19397 | 31165 ft | 445 kts | 155° |
| 2026-04-17 15:10 | -1.52127 | 10.20679 | 31465 ft | 444 kts | 155° |
| 2026-04-17 15:11 | -1.57763 | 10.23242 | 31988 ft | 445 kts | 155° |
| 2026-04-17 15:11 | -1.60582 | 10.24528 | 32267 ft | 445 kts | 155° |
| 2026-04-17 15:11 | -1.63390 | 10.25811 | 32582 ft | 444 kts | 155° |
| 2026-04-17 15:11 | -1.66196 | 10.27091 | 32902 ft | 442 kts | 155° |
| 2026-04-17 15:12 | -1.68993 | 10.28368 | 33177 ft | 442 kts | 155° |
| 2026-04-17 15:12 | -1.71784 | 10.29645 | 33453 ft | 441 kts | 155° |
| 2026-04-17 15:12 | -1.74572 | 10.30920 | 33743 ft | 440 kts | 156° |
| 2026-04-17 15:12 | -1.77352 | 10.32189 | 34004 ft | 438 kts | 156° |
| 2026-04-17 15:13 | -1.80123 | 10.33452 | 34235 ft | 437 kts | 156° |
| 2026-04-17 15:13 | -1.82889 | 10.34714 | 34453 ft | 437 kts | 156° |
| 2026-04-17 15:13 | -1.85664 | 10.35964 | 34659 ft | 437 kts | 156° |
| 2026-04-17 15:14 | -1.91294 | 10.38307 | 34771 ft | 442 kts | 158° |
| 2026-04-17 15:14 | -1.97071 | 10.40604 | 34773 ft | 452 kts | 158° |
| 2026-04-17 15:15 | -2.02946 | 10.42966 | 34772 ft | 457 kts | 158° |
| 2026-04-17 15:15 | -2.08831 | 10.45384 | 34771 ft | 457 kts | 158° |
| 2026-04-17 15:16 | -2.14711 | 10.47807 | 34774 ft | 457 kts | 158° |
| 2026-04-17 15:16 | -2.20601 | 10.50231 | 34776 ft | 458 kts | 158° |
| 2026-04-17 15:17 | -2.26457 | 10.52634 | 34783 ft | 458 kts | 158° |
| 2026-04-17 15:17 | -2.32342 | 10.55055 | 34791 ft | 457 kts | 158° |
| 2026-04-17 15:18 | -2.38226 | 10.57465 | 34784 ft | 457 kts | 158° |
| 2026-04-17 15:18 | -2.44110 | 10.59875 | 34778 ft | 457 kts | 158° |
| 2026-04-17 15:19 | -2.50004 | 10.62288 | 34770 ft | 458 kts | 158° |
| 2026-04-17 15:19 | -2.55899 | 10.64708 | 34772 ft | 458 kts | 158° |
| 2026-04-17 15:20 | -2.61806 | 10.67139 | 34773 ft | 459 kts | 158° |
| 2026-04-17 15:20 | -2.67707 | 10.69567 | 34785 ft | 458 kts | 157° |
| 2026-04-17 15:21 | -2.73602 | 10.71984 | 34797 ft | 457 kts | 157° |
| 2026-04-17 15:21 | -2.79482 | 10.74388 | 34791 ft | 457 kts | 158° |
| 2026-04-17 15:22 | -2.85358 | 10.76805 | 34793 ft | 457 kts | 157° |
| 2026-04-17 15:22 | -2.91235 | 10.79227 | 34789 ft | 457 kts | 157° |
| 2026-04-17 15:23 | -2.97117 | 10.81648 | 34786 ft | 457 kts | 157° |
| 2026-04-17 15:23 | -3.03000 | 10.84059 | 34795 ft | 457 kts | 158° |
| 2026-04-17 15:24 | -3.08879 | 10.86469 | 34794 ft | 457 kts | 158° |
| 2026-04-17 15:24 | -3.14757 | 10.88884 | 34799 ft | 457 kts | 158° |
| 2026-04-17 15:25 | -3.20633 | 10.91303 | 34799 ft | 457 kts | 158° |
| 2026-04-17 15:25 | -3.26475 | 10.93703 | 34803 ft | 457 kts | 158° |
| 2026-04-17 15:26 | -3.32357 | 10.96121 | 34803 ft | 457 kts | 158° |
| 2026-04-17 15:26 | -3.38232 | 10.98537 | 34801 ft | 456 kts | 158° |
| 2026-04-17 15:27 | -3.44109 | 11.00952 | 34804 ft | 456 kts | 158° |
| 2026-04-17 15:27 | -3.49981 | 11.03362 | 34797 ft | 456 kts | 158° |
| 2026-04-17 15:28 | -3.55850 | 11.05785 | 34796 ft | 456 kts | 158° |
| 2026-04-17 15:28 | -3.61726 | 11.08205 | 34792 ft | 456 kts | 158° |
| 2026-04-17 15:29 | -3.67594 | 11.10614 | 34794 ft | 456 kts | 158° |
| 2026-04-17 15:29 | -3.73460 | 11.13024 | 34790 ft | 456 kts | 158° |
| 2026-04-17 15:30 | -3.79328 | 11.15441 | 34787 ft | 456 kts | 158° |
| 2026-04-17 15:30 | -3.85194 | 11.17856 | 34787 ft | 456 kts | 158° |
| 2026-04-17 15:31 | -3.91062 | 11.20271 | 34784 ft | 456 kts | 158° |
| 2026-04-17 15:31 | -3.96887 | 11.22670 | 34790 ft | 456 kts | 158° |
| 2026-04-17 15:32 | -4.02792 | 11.25098 | 34793 ft | 456 kts | 158° |
| 2026-04-17 15:32 | -4.08624 | 11.27497 | 34789 ft | 456 kts | 158° |
| 2026-04-17 15:33 | -4.14494 | 11.29922 | 34791 ft | 456 kts | 158° |
| 2026-04-17 15:33 | -4.20363 | 11.32345 | 34782 ft | 456 kts | 158° |
| 2026-04-17 15:34 | -4.26239 | 11.34764 | 34791 ft | 457 kts | 158° |
| 2026-04-17 15:34 | -4.32118 | 11.37178 | 34792 ft | 457 kts | 158° |
| 2026-04-17 15:35 | -4.37997 | 11.39597 | 34792 ft | 457 kts | 158° |
| 2026-04-17 15:35 | -4.43880 | 11.42028 | 34790 ft | 457 kts | 158° |
| 2026-04-17 15:36 | -4.49762 | 11.44456 | 34798 ft | 457 kts | 158° |
| 2026-04-17 15:36 | -4.55649 | 11.46880 | 34797 ft | 457 kts | 158° |
| 2026-04-17 15:37 | -4.61528 | 11.49304 | 34797 ft | 457 kts | 158° |
| 2026-04-17 15:37 | -4.67410 | 11.51730 | 34795 ft | 457 kts | 158° |
| 2026-04-17 15:38 | -4.73285 | 11.54155 | 34792 ft | 457 kts | 158° |
| 2026-04-17 15:38 | -4.79166 | 11.56578 | 34795 ft | 457 kts | 158° |
| 2026-04-17 15:39 | -4.85041 | 11.59005 | 34793 ft | 457 kts | 158° |
| 2026-04-17 15:39 | -4.90923 | 11.61430 | 34798 ft | 457 kts | 158° |
| 2026-04-17 15:40 | -4.95818 | 11.63451 | 34791 ft | 458 kts | 158° |
| 2026-04-17 15:40 | -5.01711 | 11.65885 | 34791 ft | 458 kts | 158° |
| 2026-04-17 15:41 | -5.07608 | 11.68325 | 34792 ft | 458 kts | 158° |
| 2026-04-17 15:41 | -5.13505 | 11.70761 | 34797 ft | 458 kts | 158° |
| 2026-04-17 15:42 | -5.19397 | 11.73186 | 34800 ft | 457 kts | 158° |
| 2026-04-17 15:42 | -5.25283 | 11.75606 | 34779 ft | 458 kts | 158° |
| 2026-04-17 15:43 | -5.31184 | 11.78042 | 34771 ft | 459 kts | 158° |
| 2026-04-17 15:43 | -5.37103 | 11.80484 | 34768 ft | 460 kts | 158° |
| 2026-04-17 15:44 | -5.43032 | 11.82922 | 34772 ft | 461 kts | 158° |
| 2026-04-17 15:44 | -5.48921 | 11.85350 | 34780 ft | 461 kts | 158° |
| 2026-04-17 15:45 | -5.54853 | 11.87804 | 34780 ft | 461 kts | 158° |
| 2026-04-17 15:45 | -5.60792 | 11.90257 | 34786 ft | 461 kts | 158° |
| 2026-04-17 15:46 | -5.66714 | 11.92704 | 34793 ft | 460 kts | 158° |
| 2026-04-17 15:46 | -5.72630 | 11.95146 | 34794 ft | 459 kts | 158° |
| 2026-04-17 15:47 | -5.78532 | 11.97577 | 34796 ft | 458 kts | 158° |
| 2026-04-17 15:47 | -5.84425 | 12.00008 | 34794 ft | 458 kts | 158° |
| 2026-04-17 15:48 | -5.90317 | 12.02440 | 34793 ft | 458 kts | 158° |
| 2026-04-17 15:48 | -5.96208 | 12.04875 | 34787 ft | 458 kts | 158° |
| 2026-04-17 15:49 | -6.02098 | 12.07305 | 34794 ft | 457 kts | 158° |
| 2026-04-17 15:49 | -6.07973 | 12.09731 | 34797 ft | 456 kts | 158° |
| 2026-04-17 15:50 | -6.13839 | 12.12165 | 34793 ft | 456 kts | 158° |
| 2026-04-17 15:50 | -6.19706 | 12.14589 | 34793 ft | 456 kts | 158° |
| 2026-04-17 15:51 | -6.25578 | 12.17007 | 34788 ft | 457 kts | 158° |
| 2026-04-17 15:51 | -6.31414 | 12.19421 | 34793 ft | 457 kts | 158° |
| 2026-04-17 15:52 | -6.37291 | 12.21857 | 34793 ft | 457 kts | 159° |
| 2026-04-17 15:52 | -6.43173 | 12.24296 | 34799 ft | 457 kts | 159° |
| 2026-04-17 15:53 | -6.49059 | 12.26733 | 34794 ft | 458 kts | 159° |
| 2026-04-17 15:53 | -6.54950 | 12.29170 | 34795 ft | 458 kts | 159° |
| 2026-04-17 15:54 | -6.60838 | 12.31609 | 34801 ft | 458 kts | 159° |
| 2026-04-17 15:54 | -6.66722 | 12.34053 | 34799 ft | 457 kts | 159° |
| 2026-04-17 15:55 | -6.72604 | 12.36494 | 34801 ft | 456 kts | 158° |
| 2026-04-17 15:55 | -6.78468 | 12.38923 | 34803 ft | 455 kts | 158° |
| 2026-04-17 15:56 | -6.84325 | 12.41348 | 34798 ft | 455 kts | 158° |
| 2026-04-17 15:56 | -6.90183 | 12.43782 | 34781 ft | 456 kts | 158° |
| 2026-04-17 15:57 | -6.96048 | 12.46215 | 34772 ft | 456 kts | 158° |
| 2026-04-17 15:57 | -7.01916 | 12.48647 | 34775 ft | 456 kts | 158° |
| 2026-04-17 15:58 | -7.07749 | 12.51069 | 34780 ft | 457 kts | 158° |
| 2026-04-17 15:58 | -7.13627 | 12.53506 | 34777 ft | 457 kts | 158° |
| 2026-04-17 15:59 | -7.19510 | 12.55953 | 34788 ft | 457 kts | 158° |
| 2026-04-17 15:59 | -7.25387 | 12.58391 | 34793 ft | 456 kts | 158° |
| 2026-04-17 16:00 | -7.31256 | 12.60820 | 34795 ft | 456 kts | 158° |
| 2026-04-17 16:00 | -7.37132 | 12.63252 | 34792 ft | 456 kts | 158° |
| 2026-04-17 16:01 | -7.43000 | 12.65688 | 34785 ft | 456 kts | 159° |
| 2026-04-17 16:01 | -7.48877 | 12.68130 | 34778 ft | 457 kts | 159° |
| 2026-04-17 16:02 | -7.54763 | 12.70583 | 34781 ft | 458 kts | 159° |
| 2026-04-17 16:02 | -7.60654 | 12.73030 | 34784 ft | 458 kts | 159° |
| 2026-04-17 16:03 | -7.66554 | 12.75490 | 34786 ft | 459 kts | 159° |
| 2026-04-17 16:03 | -7.72458 | 12.77944 | 34787 ft | 458 kts | 159° |
| 2026-04-17 16:04 | -7.78348 | 12.80384 | 34801 ft | 458 kts | 158° |
| 2026-04-17 16:04 | -7.84233 | 12.82838 | 34803 ft | 457 kts | 158° |
| 2026-04-17 16:05 | -7.90096 | 12.85286 | 34798 ft | 456 kts | 158° |
| 2026-04-17 16:05 | -7.95954 | 12.87731 | 34795 ft | 456 kts | 158° |
| 2026-04-17 16:06 | -8.01775 | 12.90156 | 34795 ft | 456 kts | 158° |
| 2026-04-17 16:06 | -8.07677 | 12.92610 | 34795 ft | 456 kts | 158° |
| 2026-04-17 16:07 | -8.13538 | 12.95048 | 34798 ft | 455 kts | 159° |
| 2026-04-17 16:07 | -8.19363 | 12.97473 | 34789 ft | 456 kts | 159° |
| 2026-04-17 16:08 | -8.25233 | 12.99926 | 34786 ft | 457 kts | 159° |
| 2026-04-17 16:08 | -8.31115 | 13.02383 | 34784 ft | 458 kts | 159° |
| 2026-04-17 16:09 | -8.36998 | 13.04840 | 34785 ft | 458 kts | 159° |
| 2026-04-17 16:09 | -8.42890 | 13.07298 | 34790 ft | 458 kts | 159° |
| 2026-04-17 16:10 | -8.48776 | 13.09758 | 34792 ft | 458 kts | 159° |
| 2026-04-17 16:10 | -8.54667 | 13.12224 | 34785 ft | 459 kts | 159° |
| 2026-04-17 16:11 | -8.60571 | 13.14691 | 34781 ft | 459 kts | 159° |
| 2026-04-17 16:11 | -8.66475 | 13.17164 | 34782 ft | 460 kts | 159° |
| 2026-04-17 16:12 | -8.72391 | 13.19636 | 34784 ft | 460 kts | 159° |
| 2026-04-17 16:12 | -8.78313 | 13.22110 | 34789 ft | 460 kts | 159° |
| 2026-04-17 16:13 | -8.84238 | 13.24572 | 34789 ft | 460 kts | 162° |
| 2026-04-17 16:13 | -8.90364 | 13.26419 | 34787 ft | 459 kts | 166° |
| 2026-04-17 16:14 | -8.99579 | 13.29111 | 34788 ft | 460 kts | 166° |
| 2026-04-17 16:14 | -9.05734 | 13.30900 | 34790 ft | 460 kts | 166° |
| 2026-04-17 16:15 | -9.11888 | 13.32693 | 34791 ft | 460 kts | 165° |
| 2026-04-17 16:15 | -9.18046 | 13.34494 | 34800 ft | 460 kts | 166° |
| 2026-04-17 16:16 | -9.24200 | 13.36288 | 34797 ft | 460 kts | 165° |
| 2026-04-17 16:16 | -9.30320 | 13.38066 | 34801 ft | 460 kts | 165° |
| 2026-04-17 16:17 | -9.36481 | 13.39862 | 34801 ft | 460 kts | 165° |
| 2026-04-17 16:17 | -9.42635 | 13.41665 | 34807 ft | 460 kts | 166° |
| 2026-04-17 16:18 | -9.48785 | 13.43472 | 34806 ft | 460 kts | 165° |
| 2026-04-17 16:18 | -9.54938 | 13.45270 | 34806 ft | 460 kts | 165° |
| 2026-04-17 16:19 | -9.61094 | 13.47065 | 34809 ft | 461 kts | 165° |
| 2026-04-17 16:19 | -9.67251 | 13.48868 | 34806 ft | 461 kts | 165° |
| 2026-04-17 16:20 | -9.73414 | 13.50676 | 34804 ft | 461 kts | 165° |
| 2026-04-17 16:20 | -9.79575 | 13.52481 | 34806 ft | 461 kts | 166° |
| 2026-04-17 16:21 | -9.85737 | 13.54282 | 34810 ft | 461 kts | 165° |
| 2026-04-17 16:21 | -9.91899 | 13.56088 | 34811 ft | 461 kts | 165° |
| 2026-04-17 16:22 | -9.98059 | 13.57900 | 34809 ft | 461 kts | 166° |
| 2026-04-17 16:22 | -10.04223 | 13.59715 | 34810 ft | 461 kts | 166° |
| 2026-04-17 16:23 | -10.10350 | 13.61511 | 34807 ft | 461 kts | 166° |
| 2026-04-17 16:23 | -10.16558 | 13.63325 | 34808 ft | 461 kts | 166° |
| 2026-04-17 16:24 | -10.22688 | 13.65135 | 34808 ft | 462 kts | 165° |
| 2026-04-17 16:24 | -10.28892 | 13.66977 | 34808 ft | 462 kts | 166° |
| 2026-04-17 16:25 | -10.35068 | 13.68809 | 34800 ft | 462 kts | 166° |
| 2026-04-17 16:25 | -10.41205 | 13.70621 | 34805 ft | 463 kts | 166° |
| 2026-04-17 16:26 | -10.47389 | 13.72452 | 34801 ft | 463 kts | 166° |
| 2026-04-17 16:26 | -10.53577 | 13.74287 | 34799 ft | 463 kts | 166° |
| 2026-04-17 16:27 | -10.59764 | 13.76118 | 34808 ft | 463 kts | 166° |
| 2026-04-17 16:27 | -10.65955 | 13.77953 | 34811 ft | 464 kts | 166° |
| 2026-04-17 16:28 | -10.72152 | 13.79795 | 34812 ft | 464 kts | 166° |
| 2026-04-17 16:28 | -10.78128 | 13.82291 | 34810 ft | 468 kts | 150° |
| 2026-04-17 16:29 | -10.82425 | 13.85658 | 34809 ft | 470 kts | 141° |
| 2026-04-17 16:29 | -10.87400 | 13.89993 | 34809 ft | 471 kts | 141° |
| 2026-04-17 16:30 | -10.93189 | 13.95027 | 34822 ft | 471 kts | 142° |
| 2026-04-17 16:30 | -10.97372 | 13.98654 | 34822 ft | 472 kts | 141° |
| 2026-04-17 16:31 | -11.02355 | 14.02994 | 34832 ft | 471 kts | 141° |
| 2026-04-17 16:31 | -11.07296 | 14.07298 | 34857 ft | 471 kts | 141° |
| 2026-04-17 16:32 | -11.12280 | 14.11625 | 34858 ft | 471 kts | 141° |
| 2026-04-17 16:32 | -11.17259 | 14.15958 | 34858 ft | 470 kts | 141° |
| 2026-04-17 16:33 | -11.22234 | 14.20287 | 34858 ft | 470 kts | 141° |
| 2026-04-17 16:33 | -11.27204 | 14.24624 | 34877 ft | 471 kts | 141° |
| 2026-04-17 16:34 | -11.32183 | 14.28962 | 34873 ft | 471 kts | 141° |
| 2026-04-17 16:34 | -11.37159 | 14.33305 | 34872 ft | 471 kts | 141° |
| 2026-04-17 16:35 | -11.42144 | 14.37653 | 34893 ft | 471 kts | 141° |
| 2026-04-17 16:35 | -11.47121 | 14.42002 | 34895 ft | 471 kts | 141° |
| 2026-04-17 16:36 | -11.52101 | 14.46352 | 34894 ft | 471 kts | 141° |
| 2026-04-17 16:36 | -11.57079 | 14.50699 | 34905 ft | 471 kts | 141° |
| 2026-04-17 16:37 | -11.62060 | 14.55050 | 34904 ft | 471 kts | 141° |
| 2026-04-17 16:37 | -11.67039 | 14.59403 | 34911 ft | 471 kts | 141° |
| 2026-04-17 16:38 | -11.71979 | 14.63732 | 34908 ft | 472 kts | 141° |
| 2026-04-17 16:38 | -11.76958 | 14.68092 | 34909 ft | 472 kts | 141° |
| 2026-04-17 16:39 | -11.81936 | 14.72457 | 34911 ft | 472 kts | 141° |
| 2026-04-17 16:39 | -11.86922 | 14.76812 | 34914 ft | 472 kts | 141° |
| 2026-04-17 16:40 | -11.91905 | 14.81181 | 34912 ft | 472 kts | 141° |
| 2026-04-17 16:40 | -11.96878 | 14.85557 | 34915 ft | 472 kts | 141° |
| 2026-04-17 16:41 | -12.01854 | 14.89930 | 34919 ft | 472 kts | 141° |
| 2026-04-17 16:41 | -12.06829 | 14.94298 | 34923 ft | 472 kts | 141° |
| 2026-04-17 16:42 | -12.11820 | 14.98670 | 34923 ft | 472 kts | 141° |
| 2026-04-17 16:42 | -12.16799 | 15.03048 | 34923 ft | 472 kts | 141° |
| 2026-04-17 16:43 | -12.21781 | 15.07431 | 34922 ft | 472 kts | 141° |
| 2026-04-17 16:43 | -12.26762 | 15.11813 | 34923 ft | 473 kts | 141° |
| 2026-04-17 16:44 | -12.31713 | 15.16174 | 34921 ft | 473 kts | 141° |
| 2026-04-17 16:44 | -12.36688 | 15.20564 | 34929 ft | 473 kts | 141° |
| 2026-04-17 16:45 | -12.41669 | 15.24955 | 34930 ft | 473 kts | 141° |
| 2026-04-17 16:45 | -12.46648 | 15.29349 | 34928 ft | 473 kts | 141° |
| 2026-04-17 16:46 | -12.51630 | 15.33751 | 34926 ft | 473 kts | 141° |
| 2026-04-17 16:46 | -12.56612 | 15.38149 | 34923 ft | 473 kts | 141° |
| 2026-04-17 16:47 | -12.61596 | 15.42554 | 34925 ft | 473 kts | 141° |
| 2026-04-17 16:47 | -12.66582 | 15.46961 | 34926 ft | 473 kts | 141° |
| 2026-04-17 16:48 | -12.71567 | 15.51360 | 34922 ft | 473 kts | 142° |
| 2026-04-17 16:48 | -12.76546 | 15.55761 | 34925 ft | 473 kts | 141° |
| 2026-04-17 16:49 | -12.81521 | 15.60174 | 34926 ft | 473 kts | 141° |
| 2026-04-17 16:49 | -12.86460 | 15.64548 | 34926 ft | 473 kts | 142° |
| 2026-04-17 16:50 | -12.91441 | 15.68955 | 34912 ft | 473 kts | 142° |
| 2026-04-17 16:50 | -12.96418 | 15.73376 | 34909 ft | 474 kts | 141° |
| 2026-04-17 16:51 | -13.01403 | 15.77805 | 34914 ft | 474 kts | 142° |
| 2026-04-17 16:51 | -13.06389 | 15.82227 | 34918 ft | 473 kts | 142° |
| 2026-04-17 16:52 | -13.11373 | 15.86645 | 34916 ft | 473 kts | 142° |
| 2026-04-17 16:52 | -13.16351 | 15.91062 | 34916 ft | 473 kts | 142° |
| 2026-04-17 16:53 | -13.21326 | 15.95488 | 34918 ft | 473 kts | 141° |
| 2026-04-17 16:53 | -13.26296 | 15.99921 | 34917 ft | 473 kts | 142° |
| 2026-04-17 16:54 | -13.31229 | 16.04323 | 34900 ft | 474 kts | 142° |
| 2026-04-17 16:54 | -13.36212 | 16.08754 | 34904 ft | 474 kts | 142° |
| 2026-04-17 16:55 | -13.41195 | 16.13183 | 34909 ft | 474 kts | 142° |
| 2026-04-17 16:55 | -13.46164 | 16.17617 | 34909 ft | 473 kts | 142° |
| 2026-04-17 16:56 | -13.51135 | 16.22059 | 34904 ft | 473 kts | 142° |
| 2026-04-17 16:56 | -13.56109 | 16.26498 | 34900 ft | 473 kts | 142° |
| 2026-04-17 16:57 | -13.61088 | 16.30930 | 34901 ft | 473 kts | 142° |
| 2026-04-17 16:57 | -13.66055 | 16.35371 | 34895 ft | 473 kts | 142° |
| 2026-04-17 16:58 | -13.71022 | 16.39817 | 34894 ft | 474 kts | 142° |
| 2026-04-17 16:58 | -13.75994 | 16.44268 | 34892 ft | 474 kts | 142° |
| 2026-04-17 16:59 | -13.80939 | 16.48752 | 34890 ft | 474 kts | 141° |
| 2026-04-17 16:59 | -13.85834 | 16.53234 | 34888 ft | 474 kts | 141° |
| 2026-04-17 17:00 | -13.90765 | 16.57747 | 34889 ft | 474 kts | 141° |
| 2026-04-17 17:00 | -13.95693 | 16.62258 | 34889 ft | 474 kts | 141° |
| 2026-04-17 17:01 | -14.00627 | 16.66767 | 34890 ft | 474 kts | 141° |
| 2026-04-17 17:01 | -14.05560 | 16.71274 | 34885 ft | 475 kts | 141° |
| 2026-04-17 17:02 | -14.10500 | 16.75801 | 34877 ft | 475 kts | 141° |
| 2026-04-17 17:02 | -14.15440 | 16.80323 | 34869 ft | 475 kts | 141° |
| 2026-04-17 17:03 | -14.20384 | 16.84852 | 34876 ft | 476 kts | 141° |
| 2026-04-17 17:03 | -14.25329 | 16.89388 | 34876 ft | 476 kts | 141° |
| 2026-04-17 17:04 | -14.30271 | 16.93930 | 34870 ft | 476 kts | 141° |
| 2026-04-17 17:04 | -14.35220 | 16.98469 | 34873 ft | 476 kts | 142° |
| 2026-04-17 17:05 | -14.40170 | 17.03012 | 34874 ft | 476 kts | 142° |
| 2026-04-17 17:05 | -14.45121 | 17.07561 | 34868 ft | 477 kts | 141° |
| 2026-04-17 17:06 | -14.50043 | 17.12091 | 34867 ft | 477 kts | 141° |
| 2026-04-17 17:06 | -14.55002 | 17.16656 | 34868 ft | 478 kts | 141° |
| 2026-04-17 17:07 | -14.59966 | 17.21225 | 34867 ft | 478 kts | 141° |
| 2026-04-17 17:07 | -14.64929 | 17.25799 | 34871 ft | 478 kts | 141° |
| 2026-04-17 17:08 | -14.69890 | 17.30375 | 34870 ft | 478 kts | 141° |
| 2026-04-17 17:08 | -14.74851 | 17.34951 | 34868 ft | 478 kts | 141° |
| 2026-04-17 17:09 | -14.79814 | 17.39533 | 34870 ft | 478 kts | 141° |
| 2026-04-17 17:09 | -14.84783 | 17.44120 | 34854 ft | 480 kts | 141° |
| 2026-04-17 17:10 | -14.89760 | 17.48721 | 34856 ft | 480 kts | 141° |
| 2026-04-17 17:10 | -14.94742 | 17.53330 | 34855 ft | 481 kts | 141° |
| 2026-04-17 17:11 | -14.99720 | 17.57945 | 34864 ft | 481 kts | 141° |
| 2026-04-17 17:11 | -15.04704 | 17.62561 | 34864 ft | 481 kts | 141° |
| 2026-04-17 17:12 | -15.09685 | 17.67172 | 34862 ft | 481 kts | 141° |
| 2026-04-17 17:12 | -15.14669 | 17.71787 | 34862 ft | 481 kts | 141° |
| 2026-04-17 17:13 | -15.19649 | 17.76411 | 34858 ft | 481 kts | 141° |
| 2026-04-17 17:13 | -15.24632 | 17.81041 | 34848 ft | 482 kts | 141° |
| 2026-04-17 17:14 | -15.29594 | 17.85652 | 34860 ft | 482 kts | 141° |
| 2026-04-17 17:15 | -15.37091 | 17.92623 | 34862 ft | 483 kts | 141° |
| 2026-04-17 17:15 | -15.42089 | 17.97274 | 34857 ft | 483 kts | 141° |
| 2026-04-17 17:16 | -15.47090 | 18.01929 | 34859 ft | 483 kts | 141° |
| 2026-04-17 17:16 | -15.52090 | 18.06588 | 34862 ft | 483 kts | 141° |
| 2026-04-17 17:17 | -15.57089 | 18.11251 | 34865 ft | 483 kts | 141° |
| 2026-04-17 17:17 | -15.62084 | 18.15918 | 34864 ft | 484 kts | 141° |
| 2026-04-17 17:18 | -15.67087 | 18.20591 | 34862 ft | 484 kts | 141° |
| 2026-04-17 17:18 | -15.72097 | 18.25270 | 34854 ft | 484 kts | 141° |
| 2026-04-17 17:19 | -15.77103 | 18.29954 | 34859 ft | 484 kts | 141° |
| 2026-04-17 17:19 | -15.82106 | 18.34637 | 34858 ft | 484 kts | 141° |
| 2026-04-17 17:20 | -15.86266 | 18.38532 | 34849 ft | 484 kts | 141° |
| 2026-04-17 17:20 | -15.91272 | 18.43222 | 34864 ft | 485 kts | 141° |
| 2026-04-17 17:21 | -15.96284 | 18.47923 | 34847 ft | 486 kts | 141° |
| 2026-04-17 17:21 | -16.01309 | 18.52629 | 34844 ft | 487 kts | 141° |
| 2026-04-17 17:22 | -16.06341 | 18.57347 | 34847 ft | 487 kts | 141° |
| 2026-04-17 17:22 | -16.11367 | 18.62080 | 34846 ft | 488 kts | 141° |
| 2026-04-17 17:23 | -16.16396 | 18.66817 | 34848 ft | 488 kts | 141° |
| 2026-04-17 17:23 | -16.21435 | 18.71547 | 34860 ft | 488 kts | 142° |
| 2026-04-17 17:24 | -16.26477 | 18.76286 | 34853 ft | 489 kts | 142° |
| 2026-04-17 17:24 | -16.31523 | 18.81041 | 34845 ft | 490 kts | 141° |
| 2026-04-17 17:25 | -16.36570 | 18.85812 | 34849 ft | 490 kts | 141° |
| 2026-04-17 17:25 | -16.41624 | 18.90593 | 34850 ft | 491 kts | 141° |
| 2026-04-17 17:26 | -16.46685 | 18.95375 | 34853 ft | 491 kts | 141° |
| 2026-04-17 17:26 | -16.51754 | 19.00151 | 34871 ft | 492 kts | 141° |
| 2026-04-17 17:27 | -16.56825 | 19.04950 | 34856 ft | 493 kts | 141° |
| 2026-04-17 17:27 | -16.61896 | 19.09760 | 34855 ft | 493 kts | 141° |
| 2026-04-17 17:28 | -16.66977 | 19.14579 | 34855 ft | 494 kts | 141° |
| 2026-04-17 17:28 | -16.72061 | 19.19397 | 34857 ft | 494 kts | 141° |
| 2026-04-17 17:29 | -16.77120 | 19.24184 | 34859 ft | 494 kts | 141° |
| 2026-04-17 17:29 | -16.82209 | 19.29016 | 34875 ft | 495 kts | 141° |
| 2026-04-17 17:30 | -16.87309 | 19.33858 | 34865 ft | 496 kts | 141° |
| 2026-04-17 17:30 | -16.92419 | 19.38711 | 34857 ft | 497 kts | 141° |
| 2026-04-17 17:31 | -16.97527 | 19.43575 | 34860 ft | 497 kts | 141° |
| 2026-04-17 17:31 | -17.02640 | 19.48451 | 34871 ft | 498 kts | 141° |
| 2026-04-17 17:32 | -17.07755 | 19.53326 | 34869 ft | 498 kts | 141° |
| 2026-04-17 17:32 | -17.12873 | 19.58209 | 34876 ft | 498 kts | 141° |
| 2026-04-17 17:33 | -17.17996 | 19.63104 | 34866 ft | 499 kts | 141° |
| 2026-04-17 17:33 | -17.23128 | 19.68007 | 34875 ft | 500 kts | 141° |
| 2026-04-17 17:34 | -17.28263 | 19.72913 | 34867 ft | 500 kts | 141° |
| 2026-04-17 17:34 | -17.33402 | 19.77829 | 34861 ft | 501 kts | 141° |
| 2026-04-17 17:35 | -17.38549 | 19.82748 | 34868 ft | 501 kts | 141° |
| 2026-04-17 17:35 | -17.43689 | 19.87674 | 34878 ft | 502 kts | 141° |
| 2026-04-17 17:36 | -17.48801 | 19.92593 | 34866 ft | 502 kts | 141° |
| 2026-04-17 17:36 | -17.53954 | 19.97544 | 34873 ft | 503 kts | 141° |
| 2026-04-17 17:37 | -17.59121 | 20.02495 | 34873 ft | 503 kts | 141° |
| 2026-04-17 17:37 | -17.64288 | 20.07456 | 34883 ft | 504 kts | 140° |
| 2026-04-17 17:38 | -17.69442 | 20.12426 | 34888 ft | 504 kts | 140° |
| 2026-04-17 17:38 | -17.74602 | 20.17403 | 34891 ft | 504 kts | 140° |
| 2026-04-17 17:39 | -17.79768 | 20.22375 | 34891 ft | 504 kts | 141° |
| 2026-04-17 17:39 | -17.84932 | 20.27350 | 34885 ft | 504 kts | 140° |
| 2026-04-17 17:40 | -17.90140 | 20.32263 | 34891 ft | 503 kts | 143° |
| 2026-04-17 17:40 | -17.95601 | 20.36837 | 34899 ft | 501 kts | 146° |
| 2026-04-17 17:41 | -18.01157 | 20.41279 | 34905 ft | 502 kts | 146° |
| 2026-04-17 17:41 | -18.06669 | 20.45779 | 34885 ft | 503 kts | 145° |
| 2026-04-17 17:42 | -18.12146 | 20.50360 | 34885 ft | 503 kts | 144° |
| 2026-04-17 17:42 | -18.17611 | 20.54966 | 34892 ft | 503 kts | 144° |
| 2026-04-17 17:43 | -18.23084 | 20.59558 | 34893 ft | 503 kts | 145° |
| 2026-04-17 17:43 | -18.28533 | 20.64101 | 34900 ft | 503 kts | 145° |
| 2026-04-17 17:44 | -18.34031 | 20.68688 | 34908 ft | 504 kts | 145° |
| 2026-04-17 17:44 | -18.39531 | 20.73281 | 34896 ft | 505 kts | 145° |
| 2026-04-17 17:45 | -18.45028 | 20.77891 | 34894 ft | 506 kts | 145° |
| 2026-04-17 17:45 | -18.50530 | 20.82513 | 34893 ft | 506 kts | 144° |
| 2026-04-17 17:46 | -18.56035 | 20.87133 | 34898 ft | 506 kts | 145° |
| 2026-04-17 17:46 | -18.61545 | 20.91749 | 34912 ft | 506 kts | 145° |
| 2026-04-17 17:47 | -18.67060 | 20.96385 | 34903 ft | 507 kts | 145° |
| 2026-04-17 17:47 | -18.72570 | 21.01031 | 34900 ft | 507 kts | 145° |
| 2026-04-17 17:48 | -18.78088 | 21.05688 | 34903 ft | 508 kts | 145° |
| 2026-04-17 17:48 | -18.83606 | 21.10342 | 34904 ft | 508 kts | 145° |
| 2026-04-17 17:49 | -18.89091 | 21.14969 | 34918 ft | 508 kts | 145° |
| 2026-04-17 17:49 | -18.94617 | 21.19625 | 34914 ft | 508 kts | 145° |
| 2026-04-17 17:50 | -19.00141 | 21.24296 | 34911 ft | 509 kts | 145° |
| 2026-04-17 17:50 | -19.05664 | 21.28973 | 34905 ft | 509 kts | 145° |
| 2026-04-17 17:51 | -19.11186 | 21.33658 | 34906 ft | 509 kts | 145° |
| 2026-04-17 17:51 | -19.16707 | 21.38344 | 34906 ft | 509 kts | 145° |
| 2026-04-17 17:52 | -19.22239 | 21.43037 | 34910 ft | 509 kts | 145° |
| 2026-04-17 17:52 | -19.27768 | 21.47732 | 34908 ft | 510 kts | 145° |
| 2026-04-17 17:53 | -19.33303 | 21.52439 | 34905 ft | 510 kts | 145° |
| 2026-04-17 17:53 | -19.38835 | 21.57145 | 34904 ft | 510 kts | 145° |
| 2026-04-17 17:54 | -19.44371 | 21.61856 | 34901 ft | 510 kts | 145° |
| 2026-04-17 17:54 | -19.49902 | 21.66582 | 34916 ft | 511 kts | 145° |
| 2026-04-17 17:55 | -19.55408 | 21.71299 | 34881 ft | 500 kts | 145° |
| 2026-04-17 17:55 | -19.58069 | 21.73592 | 34890 ft | 485 kts | 145° |
| 2026-04-17 17:55 | -19.60648 | 21.75820 | 34890 ft | 472 kts | 145° |
| 2026-04-17 17:56 | -19.65666 | 21.80139 | 34886 ft | 465 kts | 145° |
| 2026-04-17 17:56 | -19.70683 | 21.84451 | 34890 ft | 464 kts | 145° |
| 2026-04-17 17:57 | -19.75693 | 21.88765 | 34891 ft | 464 kts | 145° |
| 2026-04-17 17:57 | -19.80723 | 21.93054 | 34887 ft | 464 kts | 146° |
| 2026-04-17 17:58 | -19.85773 | 21.97319 | 34891 ft | 464 kts | 146° |
| 2026-04-17 17:58 | -19.90817 | 22.01602 | 34892 ft | 464 kts | 146° |
| 2026-04-17 17:59 | -19.95856 | 22.05895 | 34894 ft | 464 kts | 146° |
| 2026-04-17 17:59 | -20.00905 | 22.10184 | 34896 ft | 464 kts | 146° |
| 2026-04-17 18:00 | -20.05952 | 22.14476 | 34904 ft | 465 kts | 146° |
| 2026-04-17 18:00 | -20.10989 | 22.18779 | 34909 ft | 464 kts | 146° |
| 2026-04-17 18:01 | -20.16029 | 22.23087 | 34909 ft | 464 kts | 146° |
| 2026-04-17 18:01 | -20.21063 | 22.27388 | 34909 ft | 464 kts | 146° |
| 2026-04-17 18:02 | -20.26095 | 22.31686 | 34910 ft | 464 kts | 146° |
| 2026-04-17 18:02 | -20.31138 | 22.35994 | 34933 ft | 464 kts | 145° |
| 2026-04-17 18:03 | -20.36158 | 22.40299 | 34898 ft | 458 kts | 145° |
| 2026-04-17 18:03 | -20.41049 | 22.44494 | 34899 ft | 448 kts | 146° |
| 2026-04-17 18:04 | -20.45901 | 22.48641 | 34907 ft | 446 kts | 146° |
| 2026-04-17 18:04 | -20.50744 | 22.52781 | 34903 ft | 446 kts | 146° |
| 2026-04-17 18:05 | -20.55584 | 22.56930 | 34897 ft | 446 kts | 146° |
| 2026-04-17 18:05 | -20.60417 | 22.61078 | 34901 ft | 446 kts | 146° |
| 2026-04-17 18:06 | -20.65255 | 22.65235 | 34909 ft | 446 kts | 146° |
| 2026-04-17 18:06 | -20.70093 | 22.69392 | 34913 ft | 446 kts | 146° |
| 2026-04-17 18:07 | -20.74932 | 22.73552 | 34919 ft | 447 kts | 146° |
| 2026-04-17 18:07 | -20.78951 | 22.77018 | 34920 ft | 447 kts | 145° |
| 2026-04-17 18:08 | -20.83782 | 22.81184 | 34914 ft | 446 kts | 145° |
| 2026-04-17 18:08 | -20.88600 | 22.85368 | 34932 ft | 446 kts | 145° |
| 2026-04-17 18:09 | -20.93412 | 22.89570 | 34923 ft | 446 kts | 145° |
| 2026-04-17 18:09 | -20.98224 | 22.93778 | 34922 ft | 447 kts | 145° |
| 2026-04-17 18:10 | -21.03034 | 22.97987 | 34922 ft | 447 kts | 145° |
| 2026-04-17 18:10 | -21.07851 | 23.02191 | 34923 ft | 447 kts | 145° |
| 2026-04-17 18:11 | -21.12665 | 23.06402 | 34925 ft | 447 kts | 145° |
| 2026-04-17 18:11 | -21.17481 | 23.10624 | 34931 ft | 447 kts | 145° |
| 2026-04-17 18:12 | -21.22289 | 23.14836 | 34922 ft | 447 kts | 145° |
| 2026-04-17 18:12 | -21.27109 | 23.19067 | 34922 ft | 447 kts | 145° |
| 2026-04-17 18:13 | -21.31921 | 23.23291 | 34921 ft | 447 kts | 145° |
| 2026-04-17 18:13 | -21.36788 | 23.27550 | 34908 ft | 459 kts | 145° |
| 2026-04-17 18:14 | -21.41827 | 23.31958 | 34911 ft | 475 kts | 144° |
| 2026-04-17 18:14 | -21.47027 | 23.36530 | 34907 ft | 491 kts | 144° |
| 2026-04-17 18:15 | -21.52392 | 23.41265 | 34911 ft | 506 kts | 144° |
| 2026-04-17 18:15 | -21.57866 | 23.46110 | 34909 ft | 511 kts | 144° |
| 2026-04-17 18:16 | -21.63357 | 23.50972 | 34909 ft | 512 kts | 144° |
| 2026-04-17 18:16 | -21.68861 | 23.55827 | 34899 ft | 512 kts | 144° |
| 2026-04-17 18:17 | -21.74380 | 23.60694 | 34907 ft | 513 kts | 144° |
| 2026-04-17 18:17 | -21.82659 | 23.68022 | 34917 ft | 514 kts | 144° |
| 2026-04-17 18:18 | -21.88177 | 23.72912 | 34923 ft | 514 kts | 144° |
| 2026-04-17 18:18 | -21.93688 | 23.77809 | 34938 ft | 514 kts | 144° |
| 2026-04-17 18:19 | -21.99205 | 23.82707 | 34926 ft | 514 kts | 144° |